sensor_id;sensor_type;location;lat;lon;timestamp;temperature;humidity
40454;DHT22;26160;51.858;4.398;2022-07-23T00:00:42;16.90;99.90
40454;DHT22;26160;51.858;4.398;2022-07-23T00:03:09;16.90;99.90
40454;DHT22;26160;51.858;4.398;2022-07-23T00:05:35;16.90;99.90
40454;DHT22;26160;51.858;4.398;2022-07-23T00:08:01;16.90;99.90
40454;DHT22;26160;51.858;4.398;2022-07-23T00:10:27;16.80;99.90
40454;DHT22;26160;51.858;4.398;2022-07-23T00:12:54;16.70;99.90
40454;DHT22;26160;51.858;4.398;2022-07-23T00:15:20;16.70;99.90
40454;DHT22;26160;51.858;4.398;2022-07-23T00:17:46;16.70;99.90
40454;DHT22;26160;51.858;4.398;2022-07-23T00:20:12;16.60;99.90
40454;DHT22;26160;51.858;4.398;2022-07-23T00:22:52;16.60;99.90
40454;DHT22;26160;51.858;4.398;2022-07-23T00:25:22;16.60;99.90
40454;DHT22;26160;51.858;4.398;2022-07-23T00:27:48;16.60;99.90
40454;DHT22;26160;51.858;4.398;2022-07-23T00:30:15;16.60;99.90
40454;DHT22;26160;51.858;4.398;2022-07-23T00:32:52;16.60;99.90
40454;DHT22;26160;51.858;4.398;2022-07-23T00:35:21;16.60;99.90
40454;DHT22;26160;51.858;4.398;2022-07-23T00:37:48;16.60;99.90
40454;DHT22;26160;51.858;4.398;2022-07-23T00:40:14;16.70;99.90
40454;DHT22;26160;51.858;4.398;2022-07-23T00:42:41;16.70;99.90
40454;DHT22;26160;51.858;4.398;2022-07-23T00:45:08;16.70;99.90
40454;DHT22;26160;51.858;4.398;2022-07-23T00:47:34;16.70;99.90
40454;DHT22;26160;51.858;4.398;2022-07-23T00:50:00;16.70;99.90
40454;DHT22;26160;51.858;4.398;2022-07-23T00:52:28;16.60;99.90
40454;DHT22;26160;51.858;4.398;2022-07-23T00:54:55;16.60;99.90
40454;DHT22;26160;51.858;4.398;2022-07-23T00:57:21;16.60;99.90
40454;DHT22;26160;51.858;4.398;2022-07-23T00:59:47;16.50;99.90
40454;DHT22;26160;51.858;4.398;2022-07-23T01:02:13;16.50;99.90
40454;DHT22;26160;51.858;4.398;2022-07-23T01:04:39;16.50;99.90
40454;DHT22;26160;51.858;4.398;2022-07-23T01:07:06;16.50;99.90
40454;DHT22;26160;51.858;4.398;2022-07-23T01:09:33;16.40;99.90
40454;DHT22;26160;51.858;4.398;2022-07-23T01:11:59;16.40;99.90
40454;DHT22;26160;51.858;4.398;2022-07-23T01:14:26;16.40;99.90
40454;DHT22;26160;51.858;4.398;2022-07-23T01:16:52;16.30;99.90
40454;DHT22;26160;51.858;4.398;2022-07-23T01:19:18;16.30;99.90
40454;DHT22;26160;51.858;4.398;2022-07-23T01:21:49;16.30;99.90
40454;DHT22;26160;51.858;4.398;2022-07-23T01:24:16;16.30;99.90
40454;DHT22;26160;51.858;4.398;2022-07-23T01:26:46;16.30;99.90
40454;DHT22;26160;51.858;4.398;2022-07-23T01:29:13;16.20;99.90
40454;DHT22;26160;51.858;4.398;2022-07-23T01:31:40;16.30;99.90
40454;DHT22;26160;51.858;4.398;2022-07-23T01:34:07;16.20;99.90
40454;DHT22;26160;51.858;4.398;2022-07-23T01:36:34;16.10;99.90
40454;DHT22;26160;51.858;4.398;2022-07-23T01:39:00;16.10;99.90
40454;DHT22;26160;51.858;4.398;2022-07-23T01:41:26;16.10;99.90
40454;DHT22;26160;51.858;4.398;2022-07-23T01:43:52;16.00;99.90
40454;DHT22;26160;51.858;4.398;2022-07-23T01:46:18;16.00;99.90
40454;DHT22;26160;51.858;4.398;2022-07-23T01:48:45;16.00;99.90
40454;DHT22;26160;51.858;4.398;2022-07-23T01:51:11;16.00;99.90
40454;DHT22;26160;51.858;4.398;2022-07-23T01:53:37;16.00;99.90
40454;DHT22;26160;51.858;4.398;2022-07-23T01:56:03;15.90;99.90
40454;DHT22;26160;51.858;4.398;2022-07-23T01:58:30;15.90;99.90
40454;DHT22;26160;51.858;4.398;2022-07-23T02:00:56;15.90;99.90
40454;DHT22;26160;51.858;4.398;2022-07-23T02:03:22;15.90;99.90
40454;DHT22;26160;51.858;4.398;2022-07-23T02:05:48;15.90;99.90
40454;DHT22;26160;51.858;4.398;2022-07-23T02:08:15;15.90;99.90
40454;DHT22;26160;51.858;4.398;2022-07-23T02:10:41;15.80;99.90
40454;DHT22;26160;51.858;4.398;2022-07-23T02:13:08;15.80;99.90
40454;DHT22;26160;51.858;4.398;2022-07-23T02:15:34;15.80;99.90
40454;DHT22;26160;51.858;4.398;2022-07-23T02:18:00;15.70;99.90
40454;DHT22;26160;51.858;4.398;2022-07-23T02:20:26;15.70;99.90
40454;DHT22;26160;51.858;4.398;2022-07-23T02:22:52;15.70;99.90
40454;DHT22;26160;51.858;4.398;2022-07-23T02:25:18;15.60;99.90
40454;DHT22;26160;51.858;4.398;2022-07-23T02:27:44;15.60;99.90
40454;DHT22;26160;51.858;4.398;2022-07-23T02:30:11;15.60;99.90
40454;DHT22;26160;51.858;4.398;2022-07-23T02:32:38;15.60;99.90
40454;DHT22;26160;51.858;4.398;2022-07-23T02:35:05;15.50;99.90
40454;DHT22;26160;51.858;4.398;2022-07-23T02:37:32;15.50;99.90
40454;DHT22;26160;51.858;4.398;2022-07-23T02:39:58;15.40;99.90
40454;DHT22;26160;51.858;4.398;2022-07-23T02:42:24;15.30;99.90
40454;DHT22;26160;51.858;4.398;2022-07-23T02:44:51;15.30;99.90
40454;DHT22;26160;51.858;4.398;2022-07-23T02:47:18;15.30;99.90
40454;DHT22;26160;51.858;4.398;2022-07-23T02:49:44;15.20;99.90
40454;DHT22;26160;51.858;4.398;2022-07-23T02:52:10;15.20;99.90
40454;DHT22;26160;51.858;4.398;2022-07-23T02:54:37;15.10;99.90
40454;DHT22;26160;51.858;4.398;2022-07-23T02:57:04;15.10;99.90
40454;DHT22;26160;51.858;4.398;2022-07-23T02:59:30;15.00;99.90
40454;DHT22;26160;51.858;4.398;2022-07-23T03:01:56;15.00;99.90
40454;DHT22;26160;51.858;4.398;2022-07-23T03:04:22;15.00;99.90
40454;DHT22;26160;51.858;4.398;2022-07-23T03:06:48;15.00;99.90
40454;DHT22;26160;51.858;4.398;2022-07-23T03:09:14;15.00;99.90
40454;DHT22;26160;51.858;4.398;2022-07-23T03:11:40;15.00;99.90
40454;DHT22;26160;51.858;4.398;2022-07-23T03:14:07;15.00;99.90
40454;DHT22;26160;51.858;4.398;2022-07-23T03:16:33;15.00;99.90
40454;DHT22;26160;51.858;4.398;2022-07-23T03:18:59;15.00;99.90
40454;DHT22;26160;51.858;4.398;2022-07-23T03:21:25;15.00;99.90
40454;DHT22;26160;51.858;4.398;2022-07-23T03:23:51;14.90;99.90
40454;DHT22;26160;51.858;4.398;2022-07-23T03:26:17;14.90;99.90
40454;DHT22;26160;51.858;4.398;2022-07-23T03:28:43;14.90;99.90
40454;DHT22;26160;51.858;4.398;2022-07-23T03:31:09;14.80;99.90
40454;DHT22;26160;51.858;4.398;2022-07-23T03:33:35;14.80;99.90
40454;DHT22;26160;51.858;4.398;2022-07-23T03:36:02;14.80;99.90
40454;DHT22;26160;51.858;4.398;2022-07-23T03:38:28;14.80;99.90
40454;DHT22;26160;51.858;4.398;2022-07-23T03:40:54;14.70;99.90
40454;DHT22;26160;51.858;4.398;2022-07-23T03:43:20;14.70;99.90
40454;DHT22;26160;51.858;4.398;2022-07-23T03:45:46;14.80;99.90
40454;DHT22;26160;51.858;4.398;2022-07-23T03:48:12;14.80;99.90
40454;DHT22;26160;51.858;4.398;2022-07-23T03:50:38;14.80;99.90
40454;DHT22;26160;51.858;4.398;2022-07-23T03:53:04;14.80;99.90
40454;DHT22;26160;51.858;4.398;2022-07-23T03:55:30;14.90;99.90
40454;DHT22;26160;51.858;4.398;2022-07-23T03:57:56;14.90;99.90
40454;DHT22;26160;51.858;4.398;2022-07-23T04:00:22;15.00;99.90
40454;DHT22;26160;51.858;4.398;2022-07-23T04:02:48;15.00;99.90
40454;DHT22;26160;51.858;4.398;2022-07-23T04:05:15;15.00;99.90
40454;DHT22;26160;51.858;4.398;2022-07-23T04:07:41;15.10;99.90
40454;DHT22;26160;51.858;4.398;2022-07-23T04:10:07;15.20;99.90
40454;DHT22;26160;51.858;4.398;2022-07-23T04:12:33;15.20;99.90
40454;DHT22;26160;51.858;4.398;2022-07-23T04:14:59;15.20;99.90
40454;DHT22;26160;51.858;4.398;2022-07-23T04:17:25;15.30;99.90
40454;DHT22;26160;51.858;4.398;2022-07-23T04:19:52;15.30;99.90
40454;DHT22;26160;51.858;4.398;2022-07-23T04:22:18;15.30;99.90
40454;DHT22;26160;51.858;4.398;2022-07-23T04:24:44;15.30;99.90
40454;DHT22;26160;51.858;4.398;2022-07-23T04:27:10;15.40;99.90
40454;DHT22;26160;51.858;4.398;2022-07-23T04:29:36;15.40;99.90
40454;DHT22;26160;51.858;4.398;2022-07-23T04:32:02;15.40;99.90
40454;DHT22;26160;51.858;4.398;2022-07-23T04:34:29;15.40;99.90
40454;DHT22;26160;51.858;4.398;2022-07-23T04:36:55;15.40;99.90
40454;DHT22;26160;51.858;4.398;2022-07-23T04:39:21;15.40;99.90
40454;DHT22;26160;51.858;4.398;2022-07-23T04:41:47;15.40;99.90
40454;DHT22;26160;51.858;4.398;2022-07-23T04:44:13;15.30;99.90
40454;DHT22;26160;51.858;4.398;2022-07-23T04:46:39;15.30;99.90
40454;DHT22;26160;51.858;4.398;2022-07-23T04:49:05;15.30;99.90
40454;DHT22;26160;51.858;4.398;2022-07-23T04:51:32;15.20;99.90
40454;DHT22;26160;51.858;4.398;2022-07-23T04:53:58;15.40;99.90
40454;DHT22;26160;51.858;4.398;2022-07-23T04:56:24;15.40;99.90
40454;DHT22;26160;51.858;4.398;2022-07-23T04:58:50;15.40;99.90
40454;DHT22;26160;51.858;4.398;2022-07-23T05:01:16;15.40;99.90
40454;DHT22;26160;51.858;4.398;2022-07-23T05:03:42;15.50;99.90
40454;DHT22;26160;51.858;4.398;2022-07-23T05:06:08;15.60;99.90
40454;DHT22;26160;51.858;4.398;2022-07-23T05:08:34;15.70;99.90
40454;DHT22;26160;51.858;4.398;2022-07-23T05:11:00;15.70;99.90
40454;DHT22;26160;51.858;4.398;2022-07-23T05:13:26;15.80;99.90
40454;DHT22;26160;51.858;4.398;2022-07-23T05:15:52;15.80;99.90
40454;DHT22;26160;51.858;4.398;2022-07-23T05:18:18;15.80;99.90
40454;DHT22;26160;51.858;4.398;2022-07-23T05:20:44;15.90;99.90
40454;DHT22;26160;51.858;4.398;2022-07-23T05:23:11;15.90;99.90
40454;DHT22;26160;51.858;4.398;2022-07-23T05:25:37;16.00;99.90
40454;DHT22;26160;51.858;4.398;2022-07-23T05:28:03;16.00;99.90
40454;DHT22;26160;51.858;4.398;2022-07-23T05:30:29;16.10;99.90
40454;DHT22;26160;51.858;4.398;2022-07-23T05:32:55;16.30;99.90
40454;DHT22;26160;51.858;4.398;2022-07-23T05:35:21;16.40;99.90
40454;DHT22;26160;51.858;4.398;2022-07-23T05:37:47;16.70;99.90
40454;DHT22;26160;51.858;4.398;2022-07-23T05:40:13;17.10;99.90
40454;DHT22;26160;51.858;4.398;2022-07-23T05:42:40;17.40;99.90
40454;DHT22;26160;51.858;4.398;2022-07-23T05:45:07;17.60;99.90
40454;DHT22;26160;51.858;4.398;2022-07-23T05:47:41;17.70;99.90
40454;DHT22;26160;51.858;4.398;2022-07-23T05:50:08;17.70;99.90
40454;DHT22;26160;51.858;4.398;2022-07-23T05:52:34;18.00;99.90
40454;DHT22;26160;51.858;4.398;2022-07-23T05:55:00;18.20;99.90
40454;DHT22;26160;51.858;4.398;2022-07-23T05:57:26;18.20;99.90
40454;DHT22;26160;51.858;4.398;2022-07-23T05:59:52;18.40;99.90
40454;DHT22;26160;51.858;4.398;2022-07-23T06:02:18;18.60;99.90
40454;DHT22;26160;51.858;4.398;2022-07-23T06:04:44;18.80;99.90
40454;DHT22;26160;51.858;4.398;2022-07-23T06:07:12;18.90;99.90
40454;DHT22;26160;51.858;4.398;2022-07-23T06:09:38;19.00;99.90
40454;DHT22;26160;51.858;4.398;2022-07-23T06:12:04;18.90;99.90
40454;DHT22;26160;51.858;4.398;2022-07-23T06:14:30;18.60;99.90
40454;DHT22;26160;51.858;4.398;2022-07-23T06:16:56;18.30;99.90
40454;DHT22;26160;51.858;4.398;2022-07-23T06:19:22;18.10;99.90
40454;DHT22;26160;51.858;4.398;2022-07-23T06:21:48;18.00;99.90
40454;DHT22;26160;51.858;4.398;2022-07-23T06:24:14;18.00;99.90
40454;DHT22;26160;51.858;4.398;2022-07-23T06:26:41;17.90;99.90
40454;DHT22;26160;51.858;4.398;2022-07-23T06:29:07;17.90;99.90
40454;DHT22;26160;51.858;4.398;2022-07-23T06:31:33;17.80;99.90
40454;DHT22;26160;51.858;4.398;2022-07-23T06:33:59;17.90;99.90
40454;DHT22;26160;51.858;4.398;2022-07-23T06:36:25;18.00;99.90
40454;DHT22;26160;51.858;4.398;2022-07-23T06:38:51;18.50;99.90
40454;DHT22;26160;51.858;4.398;2022-07-23T06:41:17;18.70;99.90
40454;DHT22;26160;51.858;4.398;2022-07-23T06:43:43;18.60;99.90
40454;DHT22;26160;51.858;4.398;2022-07-23T06:46:09;18.50;99.90
40454;DHT22;26160;51.858;4.398;2022-07-23T06:48:35;18.70;99.90
40454;DHT22;26160;51.858;4.398;2022-07-23T06:51:03;19.20;99.90
40454;DHT22;26160;51.858;4.398;2022-07-23T06:53:29;19.50;99.90
40454;DHT22;26160;51.858;4.398;2022-07-23T06:55:55;19.90;99.90
40454;DHT22;26160;51.858;4.398;2022-07-23T06:58:21;20.30;99.90
40454;DHT22;26160;51.858;4.398;2022-07-23T07:00:47;20.50;99.90
40454;DHT22;26160;51.858;4.398;2022-07-23T07:03:13;20.50;99.90
40454;DHT22;26160;51.858;4.398;2022-07-23T07:05:39;20.30;99.90
40454;DHT22;26160;51.858;4.398;2022-07-23T07:08:06;20.40;99.90
40454;DHT22;26160;51.858;4.398;2022-07-23T07:10:32;20.40;99.90
40454;DHT22;26160;51.858;4.398;2022-07-23T07:12:58;20.70;99.90
40454;DHT22;26160;51.858;4.398;2022-07-23T07:15:24;20.50;99.90
40454;DHT22;26160;51.858;4.398;2022-07-23T07:17:50;20.60;99.90
40454;DHT22;26160;51.858;4.398;2022-07-23T07:20:17;20.50;99.90
40454;DHT22;26160;51.858;4.398;2022-07-23T07:22:43;20.60;99.90
40454;DHT22;26160;51.858;4.398;2022-07-23T07:25:09;20.80;99.90
40454;DHT22;26160;51.858;4.398;2022-07-23T07:27:35;21.00;99.90
40454;DHT22;26160;51.858;4.398;2022-07-23T07:30:06;21.30;99.90
40454;DHT22;26160;51.858;4.398;2022-07-23T07:32:33;21.50;99.90
40454;DHT22;26160;51.858;4.398;2022-07-23T07:34:59;21.30;99.90
40454;DHT22;26160;51.858;4.398;2022-07-23T07:37:25;21.40;99.90
40454;DHT22;26160;51.858;4.398;2022-07-23T07:39:51;21.70;99.90
40454;DHT22;26160;51.858;4.398;2022-07-23T07:42:17;21.80;99.90
40454;DHT22;26160;51.858;4.398;2022-07-23T07:44:43;22.00;99.90
40454;DHT22;26160;51.858;4.398;2022-07-23T07:47:09;22.20;99.90
40454;DHT22;26160;51.858;4.398;2022-07-23T07:49:36;22.40;99.90
40454;DHT22;26160;51.858;4.398;2022-07-23T07:52:03;22.30;99.90
40454;DHT22;26160;51.858;4.398;2022-07-23T07:54:29;22.40;99.90
40454;DHT22;26160;51.858;4.398;2022-07-23T07:56:55;22.60;99.90
40454;DHT22;26160;51.858;4.398;2022-07-23T07:59:21;22.70;99.90
40454;DHT22;26160;51.858;4.398;2022-07-23T08:01:47;22.60;99.90
40454;DHT22;26160;51.858;4.398;2022-07-23T08:04:13;22.60;99.90
40454;DHT22;26160;51.858;4.398;2022-07-23T08:06:39;21.80;99.90
40454;DHT22;26160;51.858;4.398;2022-07-23T08:09:05;21.70;99.90
40454;DHT22;26160;51.858;4.398;2022-07-23T08:11:31;22.20;99.90
40454;DHT22;26160;51.858;4.398;2022-07-23T08:13:57;22.40;99.90
40454;DHT22;26160;51.858;4.398;2022-07-23T08:16:24;22.70;99.90
40454;DHT22;26160;51.858;4.398;2022-07-23T08:18:50;22.90;99.90
40454;DHT22;26160;51.858;4.398;2022-07-23T08:21:16;23.10;99.90
40454;DHT22;26160;51.858;4.398;2022-07-23T08:23:42;23.20;99.90
40454;DHT22;26160;51.858;4.398;2022-07-23T08:26:08;23.00;99.90
40454;DHT22;26160;51.858;4.398;2022-07-23T08:28:34;23.20;99.90
40454;DHT22;26160;51.858;4.398;2022-07-23T08:31:00;22.70;99.90
40454;DHT22;26160;51.858;4.398;2022-07-23T08:33:27;22.90;99.90
40454;DHT22;26160;51.858;4.398;2022-07-23T08:35:54;22.70;99.90
40454;DHT22;26160;51.858;4.398;2022-07-23T08:38:21;23.30;99.90
40454;DHT22;26160;51.858;4.398;2022-07-23T08:40:49;23.50;99.90
40454;DHT22;26160;51.858;4.398;2022-07-23T08:43:21;23.40;99.90
40454;DHT22;26160;51.858;4.398;2022-07-23T08:45:50;23.40;99.90
40454;DHT22;26160;51.858;4.398;2022-07-23T08:48:21;23.70;99.90
40454;DHT22;26160;51.858;4.398;2022-07-23T08:50:52;23.50;99.90
40454;DHT22;26160;51.858;4.398;2022-07-23T08:53:20;23.60;99.90
40454;DHT22;26160;51.858;4.398;2022-07-23T08:55:48;23.30;99.90
40454;DHT22;26160;51.858;4.398;2022-07-23T08:58:15;22.50;99.90
40454;DHT22;26160;51.858;4.398;2022-07-23T09:00:42;22.50;99.90
40454;DHT22;26160;51.858;4.398;2022-07-23T09:03:16;22.80;99.90
40454;DHT22;26160;51.858;4.398;2022-07-23T09:05:42;23.20;99.90
40454;DHT22;26160;51.858;4.398;2022-07-23T09:08:13;22.30;99.90
40454;DHT22;26160;51.858;4.398;2022-07-23T09:10:43;22.50;99.90
40454;DHT22;26160;51.858;4.398;2022-07-23T09:13:37;22.90;99.90
40454;DHT22;26160;51.858;4.398;2022-07-23T09:16:10;23.20;99.90
40454;DHT22;26160;51.858;4.398;2022-07-23T09:18:46;23.90;99.90
40454;DHT22;26160;51.858;4.398;2022-07-23T09:21:18;24.40;99.90
40454;DHT22;26160;51.858;4.398;2022-07-23T09:29:11;23.20;99.90
40454;DHT22;26160;51.858;4.398;2022-07-23T09:31:47;23.80;99.90
40454;DHT22;26160;51.858;4.398;2022-07-23T09:34:20;24.30;99.90
40454;DHT22;26160;51.858;4.398;2022-07-23T09:36:48;24.40;99.90
40454;DHT22;26160;51.858;4.398;2022-07-23T09:39:29;24.50;99.90
40454;DHT22;26160;51.858;4.398;2022-07-23T09:41:56;24.40;99.90
40454;DHT22;26160;51.858;4.398;2022-07-23T09:44:22;24.30;99.90
40454;DHT22;26160;51.858;4.398;2022-07-23T09:46:50;24.50;99.90
40454;DHT22;26160;51.858;4.398;2022-07-23T09:49:22;24.60;99.90
40454;DHT22;26160;51.858;4.398;2022-07-23T09:51:56;23.40;99.90
40454;DHT22;26160;51.858;4.398;2022-07-23T09:54:39;23.10;99.90
40454;DHT22;26160;51.858;4.398;2022-07-23T09:57:10;23.60;99.90
40454;DHT22;26160;51.858;4.398;2022-07-23T09:59:42;23.50;99.90
40454;DHT22;26160;51.858;4.398;2022-07-23T10:02:10;24.00;99.90
40454;DHT22;26160;51.858;4.398;2022-07-23T10:04:38;24.40;99.90
40454;DHT22;26160;51.858;4.398;2022-07-23T10:07:06;24.20;99.90
40454;DHT22;26160;51.858;4.398;2022-07-23T10:09:36;23.60;99.90
40454;DHT22;26160;51.858;4.398;2022-07-23T10:12:05;24.00;99.90
40454;DHT22;26160;51.858;4.398;2022-07-23T10:14:36;24.30;99.90
40454;DHT22;26160;51.858;4.398;2022-07-23T10:17:04;24.40;99.90
40454;DHT22;26160;51.858;4.398;2022-07-23T10:19:31;24.10;99.90
40454;DHT22;26160;51.858;4.398;2022-07-23T10:22:00;23.70;99.90
40454;DHT22;26160;51.858;4.398;2022-07-23T10:30:16;24.60;99.90
40454;DHT22;26160;51.858;4.398;2022-07-23T10:35:31;25.40;99.90
40454;DHT22;26160;51.858;4.398;2022-07-23T10:38:15;25.40;99.90
40454;DHT22;26160;51.858;4.398;2022-07-23T10:41:01;25.70;99.90
40454;DHT22;26160;51.858;4.398;2022-07-23T10:43:29;25.20;99.90
40454;DHT22;26160;51.858;4.398;2022-07-23T10:46:20;24.60;99.90
40454;DHT22;26160;51.858;4.398;2022-07-23T10:48:42;25.10;99.90
40454;DHT22;26160;51.858;4.398;2022-07-23T10:51:14;25.70;99.90
40454;DHT22;26160;51.858;4.398;2022-07-23T10:56:16;25.70;99.90
40454;DHT22;26160;51.858;4.398;2022-07-23T10:58:46;25.30;99.90
40454;DHT22;26160;51.858;4.398;2022-07-23T11:01:34;25.20;99.90
40454;DHT22;26160;51.858;4.398;2022-07-23T11:04:03;24.40;99.90
40454;DHT22;26160;51.858;4.398;2022-07-23T11:17:24;26.50;99.90
40454;DHT22;26160;51.858;4.398;2022-07-23T11:25:03;26.20;99.90
40454;DHT22;26160;51.858;4.398;2022-07-23T11:27:43;26.20;99.90
40454;DHT22;26160;51.858;4.398;2022-07-23T11:30:13;26.60;99.90
40454;DHT22;26160;51.858;4.398;2022-07-23T11:35:36;27.30;99.90
40454;DHT22;26160;51.858;4.398;2022-07-23T11:38:14;26.60;99.90
40454;DHT22;26160;51.858;4.398;2022-07-23T11:40:43;26.50;99.90
40454;DHT22;26160;51.858;4.398;2022-07-23T11:43:11;26.10;99.90
40454;DHT22;26160;51.858;4.398;2022-07-23T11:45:39;25.80;99.90
40454;DHT22;26160;51.858;4.398;2022-07-23T11:48:08;25.80;99.90
40454;DHT22;26160;51.858;4.398;2022-07-23T11:50:35;26.00;99.90
40454;DHT22;26160;51.858;4.398;2022-07-23T11:53:02;26.60;99.90
40454;DHT22;26160;51.858;4.398;2022-07-23T11:55:28;26.80;99.90
40454;DHT22;26160;51.858;4.398;2022-07-23T11:57:55;27.10;99.90
40454;DHT22;26160;51.858;4.398;2022-07-23T12:00:24;27.60;99.90
40454;DHT22;26160;51.858;4.398;2022-07-23T12:02:53;27.10;99.90
40454;DHT22;26160;51.858;4.398;2022-07-23T12:05:21;27.60;99.90
40454;DHT22;26160;51.858;4.398;2022-07-23T12:07:50;27.20;99.90
40454;DHT22;26160;51.858;4.398;2022-07-23T12:10:19;27.10;99.90
40454;DHT22;26160;51.858;4.398;2022-07-23T12:12:55;26.80;99.90
40454;DHT22;26160;51.858;4.398;2022-07-23T12:15:24;26.50;99.90
40454;DHT22;26160;51.858;4.398;2022-07-23T12:17:52;26.90;99.90
40454;DHT22;26160;51.858;4.398;2022-07-23T12:20:22;27.40;99.90
40454;DHT22;26160;51.858;4.398;2022-07-23T12:22:51;27.60;99.90
40454;DHT22;26160;51.858;4.398;2022-07-23T12:25:20;27.60;99.90
40454;DHT22;26160;51.858;4.398;2022-07-23T12:27:59;27.90;99.90
40454;DHT22;26160;51.858;4.398;2022-07-23T12:30:28;28.10;99.90
40454;DHT22;26160;51.858;4.398;2022-07-23T12:32:57;28.30;99.90
40454;DHT22;26160;51.858;4.398;2022-07-23T12:35:36;28.30;99.90
40454;DHT22;26160;51.858;4.398;2022-07-23T12:38:08;27.90;99.90
40454;DHT22;26160;51.858;4.398;2022-07-23T12:40:41;27.20;99.90
40454;DHT22;26160;51.858;4.398;2022-07-23T12:43:10;26.40;99.90
40454;DHT22;26160;51.858;4.398;2022-07-23T12:45:51;26.40;99.90
40454;DHT22;26160;51.858;4.398;2022-07-23T12:48:21;26.70;99.90
40454;DHT22;26160;51.858;4.398;2022-07-23T12:50:59;26.90;99.90
40454;DHT22;26160;51.858;4.398;2022-07-23T12:53:38;26.60;99.90
40454;DHT22;26160;51.858;4.398;2022-07-23T12:56:09;26.40;99.90
40454;DHT22;26160;51.858;4.398;2022-07-23T12:58:53;25.70;99.90
40454;DHT22;26160;51.858;4.398;2022-07-23T13:04:06;26.40;99.90
40454;DHT22;26160;51.858;4.398;2022-07-23T13:06:42;26.20;99.90
40454;DHT22;26160;51.858;4.398;2022-07-23T13:09:14;25.80;99.90
40454;DHT22;26160;51.858;4.398;2022-07-23T13:11:41;25.70;99.90
40454;DHT22;26160;51.858;4.398;2022-07-23T13:14:07;26.50;99.90
40454;DHT22;26160;51.858;4.398;2022-07-23T13:16:33;27.10;99.90
40454;DHT22;26160;51.858;4.398;2022-07-23T13:19:00;27.50;99.90
40454;DHT22;26160;51.858;4.398;2022-07-23T13:21:27;27.40;99.90
40454;DHT22;26160;51.858;4.398;2022-07-23T13:23:54;27.50;99.90
40454;DHT22;26160;51.858;4.398;2022-07-23T13:26:20;27.40;99.90
40454;DHT22;26160;51.858;4.398;2022-07-23T13:28:46;27.90;99.90
40454;DHT22;26160;51.858;4.398;2022-07-23T13:31:13;28.20;99.90
40454;DHT22;26160;51.858;4.398;2022-07-23T13:33:39;28.30;99.90
40454;DHT22;26160;51.858;4.398;2022-07-23T13:36:06;27.40;99.90
40454;DHT22;26160;51.858;4.398;2022-07-23T13:38:32;27.00;99.90
40454;DHT22;26160;51.858;4.398;2022-07-23T13:40:58;27.10;99.90
40454;DHT22;26160;51.858;4.398;2022-07-23T13:43:25;27.30;99.90
40454;DHT22;26160;51.858;4.398;2022-07-23T13:45:52;27.40;99.90
40454;DHT22;26160;51.858;4.398;2022-07-23T13:48:19;27.60;99.90
40454;DHT22;26160;51.858;4.398;2022-07-23T13:50:46;27.40;99.90
40454;DHT22;26160;51.858;4.398;2022-07-23T13:53:17;27.00;99.90
40454;DHT22;26160;51.858;4.398;2022-07-23T13:55:44;27.40;99.90
40454;DHT22;26160;51.858;4.398;2022-07-23T13:58:10;26.60;99.90
40454;DHT22;26160;51.858;4.398;2022-07-23T14:00:39;26.30;99.90
40454;DHT22;26160;51.858;4.398;2022-07-23T14:03:06;26.60;99.90
40454;DHT22;26160;51.858;4.398;2022-07-23T14:05:32;27.00;99.90
40454;DHT22;26160;51.858;4.398;2022-07-23T14:07:58;27.10;99.90
40454;DHT22;26160;51.858;4.398;2022-07-23T14:10:25;27.30;99.90
40454;DHT22;26160;51.858;4.398;2022-07-23T14:12:52;27.40;99.90
40454;DHT22;26160;51.858;4.398;2022-07-23T14:15:25;27.30;99.90
40454;DHT22;26160;51.858;4.398;2022-07-23T14:17:53;27.20;99.90
40454;DHT22;26160;51.858;4.398;2022-07-23T14:20:19;27.30;99.90
40454;DHT22;26160;51.858;4.398;2022-07-23T14:22:45;27.60;99.90
40454;DHT22;26160;51.858;4.398;2022-07-23T14:25:12;27.80;99.90
40454;DHT22;26160;51.858;4.398;2022-07-23T14:27:39;28.10;99.90
40454;DHT22;26160;51.858;4.398;2022-07-23T14:30:06;28.20;99.90
40454;DHT22;26160;51.858;4.398;2022-07-23T14:32:33;27.30;99.90
40454;DHT22;26160;51.858;4.398;2022-07-23T14:34:59;27.40;99.90
40454;DHT22;26160;51.858;4.398;2022-07-23T14:37:25;27.40;99.90
40454;DHT22;26160;51.858;4.398;2022-07-23T14:39:51;27.50;99.90
40454;DHT22;26160;51.858;4.398;2022-07-23T14:42:18;27.40;99.90
40454;DHT22;26160;51.858;4.398;2022-07-23T14:44:45;27.50;99.90
40454;DHT22;26160;51.858;4.398;2022-07-23T14:47:11;27.50;99.90
40454;DHT22;26160;51.858;4.398;2022-07-23T14:49:37;27.00;99.90
40454;DHT22;26160;51.858;4.398;2022-07-23T14:52:04;26.80;99.90
40454;DHT22;26160;51.858;4.398;2022-07-23T14:54:31;27.10;99.90
40454;DHT22;26160;51.858;4.398;2022-07-23T14:56:58;27.10;99.90
40454;DHT22;26160;51.858;4.398;2022-07-23T14:59:25;26.80;99.90
40454;DHT22;26160;51.858;4.398;2022-07-23T15:01:51;26.50;99.90
40454;DHT22;26160;51.858;4.398;2022-07-23T15:04:18;26.30;99.90
40454;DHT22;26160;51.858;4.398;2022-07-23T15:06:44;26.00;99.90
40454;DHT22;26160;51.858;4.398;2022-07-23T15:09:11;26.10;99.90
40454;DHT22;26160;51.858;4.398;2022-07-23T15:11:37;26.30;99.90
40454;DHT22;26160;51.858;4.398;2022-07-23T15:14:04;26.50;99.90
40454;DHT22;26160;51.858;4.398;2022-07-23T15:16:30;26.80;99.90
40454;DHT22;26160;51.858;4.398;2022-07-23T15:18:56;27.00;99.90
40454;DHT22;26160;51.858;4.398;2022-07-23T15:21:22;26.80;99.90
40454;DHT22;26160;51.858;4.398;2022-07-23T15:23:49;26.50;99.90
40454;DHT22;26160;51.858;4.398;2022-07-23T15:26:15;26.30;99.90
40454;DHT22;26160;51.858;4.398;2022-07-23T15:28:41;26.60;99.90
40454;DHT22;26160;51.858;4.398;2022-07-23T15:31:07;26.80;99.90
40454;DHT22;26160;51.858;4.398;2022-07-23T15:33:34;26.90;99.90
40454;DHT22;26160;51.858;4.398;2022-07-23T15:36:01;26.90;99.90
40454;DHT22;26160;51.858;4.398;2022-07-23T15:38:27;26.80;99.90
40454;DHT22;26160;51.858;4.398;2022-07-23T15:40:55;26.60;99.90
40454;DHT22;26160;51.858;4.398;2022-07-23T15:43:25;26.60;99.90
40454;DHT22;26160;51.858;4.398;2022-07-23T15:45:51;26.80;99.90
40454;DHT22;26160;51.858;4.398;2022-07-23T15:48:18;26.90;99.90
40454;DHT22;26160;51.858;4.398;2022-07-23T15:50:45;27.10;99.90
40454;DHT22;26160;51.858;4.398;2022-07-23T15:53:11;26.70;99.90
40454;DHT22;26160;51.858;4.398;2022-07-23T15:55:38;26.40;99.90
40454;DHT22;26160;51.858;4.398;2022-07-23T15:58:05;26.50;99.90
40454;DHT22;26160;51.858;4.398;2022-07-23T16:00:31;26.40;99.90
40454;DHT22;26160;51.858;4.398;2022-07-23T16:02:57;26.30;99.90
40454;DHT22;26160;51.858;4.398;2022-07-23T16:05:23;26.20;99.90
40454;DHT22;26160;51.858;4.398;2022-07-23T16:07:49;26.00;99.90
40454;DHT22;26160;51.858;4.398;2022-07-23T16:10:15;26.00;99.90